sensor_id;sensor_type;location;lat;lon;timestamp;P1;durP1;ratioP1;P2;durP2;ratioP2
17145;SDS011;8688;54.444;18.444;2023-09-18T00:02:00;15.77;;;10.98;;
17145;SDS011;8688;54.444;18.444;2023-09-18T00:04:28;15.70;;;10.85;;
17145;SDS011;8688;54.444;18.444;2023-09-18T00:06:56;18.75;;;11.23;;
17145;SDS011;8688;54.444;18.444;2023-09-18T00:09:24;17.55;;;11.88;;
17145;SDS011;8688;54.444;18.444;2023-09-18T00:11:52;18.83;;;11.80;;
17145;SDS011;8688;54.444;18.444;2023-09-18T00:14:19;18.30;;;12.32;;
17145;SDS011;8688;54.444;18.444;2023-09-18T00:16:47;16.77;;;12.05;;
17145;SDS011;8688;54.444;18.444;2023-09-18T00:19:14;18.10;;;12.27;;
17145;SDS011;8688;54.444;18.444;2023-09-18T00:21:42;19.33;;;12.15;;
17145;SDS011;8688;54.444;18.444;2023-09-18T00:24:11;21.65;;;12.50;;
17145;SDS011;8688;54.444;18.444;2023-09-18T00:26:38;19.17;;;13.00;;
17145;SDS011;8688;54.444;18.444;2023-09-18T00:29:06;22.25;;;13.93;;
17145;SDS011;8688;54.444;18.444;2023-09-18T00:31:34;19.98;;;13.15;;
17145;SDS011;8688;54.444;18.444;2023-09-18T00:34:01;19.75;;;12.60;;
17145;SDS011;8688;54.444;18.444;2023-09-18T00:36:28;21.10;;;13.63;;
17145;SDS011;8688;54.444;18.444;2023-09-18T00:38:56;20.52;;;13.63;;
17145;SDS011;8688;54.444;18.444;2023-09-18T00:41:25;24.10;;;14.30;;
17145;SDS011;8688;54.444;18.444;2023-09-18T00:43:52;22.73;;;14.05;;
17145;SDS011;8688;54.444;18.444;2023-09-18T00:46:20;21.33;;;14.05;;
17145;SDS011;8688;54.444;18.444;2023-09-18T00:48:48;21.63;;;14.27;;
17145;SDS011;8688;54.444;18.444;2023-09-18T00:51:17;21.45;;;14.07;;
17145;SDS011;8688;54.444;18.444;2023-09-18T00:53:45;24.02;;;14.80;;
17145;SDS011;8688;54.444;18.444;2023-09-18T00:56:14;24.75;;;14.05;;
17145;SDS011;8688;54.444;18.444;2023-09-18T00:58:47;23.63;;;14.50;;
17145;SDS011;8688;54.444;18.444;2023-09-18T01:01:14;21.42;;;14.18;;
17145;SDS011;8688;54.444;18.444;2023-09-18T01:03:48;23.77;;;13.70;;
17145;SDS011;8688;54.444;18.444;2023-09-18T01:06:16;21.48;;;13.70;;
17145;SDS011;8688;54.444;18.444;2023-09-18T01:08:46;24.83;;;14.93;;
17145;SDS011;8688;54.444;18.444;2023-09-18T01:11:21;22.67;;;14.07;;
17145;SDS011;8688;54.444;18.444;2023-09-18T01:14:01;20.45;;;13.93;;
17145;SDS011;8688;54.444;18.444;2023-09-18T01:16:34;27.38;;;14.60;;
17145;SDS011;8688;54.444;18.444;2023-09-18T01:19:09;22.33;;;13.70;;
17145;SDS011;8688;54.444;18.444;2023-09-18T01:21:36;25.60;;;14.50;;
17145;SDS011;8688;54.444;18.444;2023-09-18T01:24:06;25.90;;;14.18;;
17145;SDS011;8688;54.444;18.444;2023-09-18T01:26:33;22.42;;;14.63;;
17145;SDS011;8688;54.444;18.444;2023-09-18T01:29:01;22.10;;;14.27;;
17145;SDS011;8688;54.444;18.444;2023-09-18T01:31:29;26.83;;;14.68;;
17145;SDS011;8688;54.444;18.444;2023-09-18T01:33:57;22.23;;;14.10;;
17145;SDS011;8688;54.444;18.444;2023-09-18T01:36:25;20.80;;;14.05;;
17145;SDS011;8688;54.444;18.444;2023-09-18T01:38:53;21.35;;;14.05;;
17145;SDS011;8688;54.444;18.444;2023-09-18T01:41:23;17.80;;;12.85;;
17145;SDS011;8688;54.444;18.444;2023-09-18T01:43:50;21.20;;;13.95;;
17145;SDS011;8688;54.444;18.444;2023-09-18T01:46:18;25.08;;;14.82;;
17145;SDS011;8688;54.444;18.444;2023-09-18T01:48:47;19.77;;;13.68;;
17145;SDS011;8688;54.444;18.444;2023-09-18T01:51:14;22.42;;;13.52;;
17145;SDS011;8688;54.444;18.444;2023-09-18T01:53:42;21.38;;;13.77;;
17145;SDS011;8688;54.444;18.444;2023-09-18T01:56:10;23.90;;;14.48;;
17145;SDS011;8688;54.444;18.444;2023-09-18T01:58:39;21.67;;;14.65;;
17145;SDS011;8688;54.444;18.444;2023-09-18T02:01:06;21.90;;;14.10;;
17145;SDS011;8688;54.444;18.444;2023-09-18T02:03:34;22.67;;;14.75;;
17145;SDS011;8688;54.444;18.444;2023-09-18T02:06:03;22.88;;;14.95;;
17145;SDS011;8688;54.444;18.444;2023-09-18T02:08:30;20.67;;;14.68;;
17145;SDS011;8688;54.444;18.444;2023-09-18T02:10:58;25.88;;;14.05;;
17145;SDS011;8688;54.444;18.444;2023-09-18T02:13:26;26.25;;;14.68;;
17145;SDS011;8688;54.444;18.444;2023-09-18T02:15:55;21.13;;;13.95;;
17145;SDS011;8688;54.444;18.444;2023-09-18T02:18:23;21.65;;;14.38;;
17145;SDS011;8688;54.444;18.444;2023-09-18T02:20:50;22.60;;;14.20;;
17145;SDS011;8688;54.444;18.444;2023-09-18T02:23:18;25.80;;;14.07;;
17145;SDS011;8688;54.444;18.444;2023-09-18T02:25:46;23.45;;;14.30;;
17145;SDS011;8688;54.444;18.444;2023-09-18T02:28:13;21.60;;;13.98;;
17145;SDS011;8688;54.444;18.444;2023-09-18T02:30:41;22.65;;;14.52;;
17145;SDS011;8688;54.444;18.444;2023-09-18T02:33:11;25.05;;;14.23;;
17145;SDS011;8688;54.444;18.444;2023-09-18T02:35:40;27.45;;;14.43;;
17145;SDS011;8688;54.444;18.444;2023-09-18T02:38:08;22.00;;;14.50;;
17145;SDS011;8688;54.444;18.444;2023-09-18T02:40:36;24.80;;;14.55;;
17145;SDS011;8688;54.444;18.444;2023-09-18T02:43:04;21.60;;;14.73;;
17145;SDS011;8688;54.444;18.444;2023-09-18T02:45:32;22.17;;;14.80;;
17145;SDS011;8688;54.444;18.444;2023-09-18T02:47:59;24.02;;;15.07;;
17145;SDS011;8688;54.444;18.444;2023-09-18T02:50:28;24.73;;;15.48;;
17145;SDS011;8688;54.444;18.444;2023-09-18T02:52:56;22.95;;;15.25;;
17145;SDS011;8688;54.444;18.444;2023-09-18T02:55:23;26.23;;;16.02;;
17145;SDS011;8688;54.444;18.444;2023-09-18T02:57:51;26.00;;;16.10;;
17145;SDS011;8688;54.444;18.444;2023-09-18T03:00:18;26.95;;;16.52;;
17145;SDS011;8688;54.444;18.444;2023-09-18T03:02:46;26.17;;;16.95;;
17145;SDS011;8688;54.444;18.444;2023-09-18T03:05:14;25.40;;;16.63;;
17145;SDS011;8688;54.444;18.444;2023-09-18T03:07:43;25.70;;;16.98;;
17145;SDS011;8688;54.444;18.444;2023-09-18T03:10:10;26.27;;;16.38;;
17145;SDS011;8688;54.444;18.444;2023-09-18T03:12:38;25.08;;;15.85;;
17145;SDS011;8688;54.444;18.444;2023-09-18T03:15:06;24.58;;;15.77;;
17145;SDS011;8688;54.444;18.444;2023-09-18T03:17:34;23.33;;;15.07;;
17145;SDS011;8688;54.444;18.444;2023-09-18T03:20:02;21.83;;;14.68;;
17145;SDS011;8688;54.444;18.444;2023-09-18T03:22:31;23.42;;;15.32;;
17145;SDS011;8688;54.444;18.444;2023-09-18T03:25:00;23.35;;;14.50;;
17145;SDS011;8688;54.444;18.444;2023-09-18T03:27:28;20.63;;;14.48;;
17145;SDS011;8688;54.444;18.444;2023-09-18T03:29:57;21.38;;;14.95;;
17145;SDS011;8688;54.444;18.444;2023-09-18T03:32:24;21.75;;;14.43;;
17145;SDS011;8688;54.444;18.444;2023-09-18T03:34:52;21.15;;;14.05;;
17145;SDS011;8688;54.444;18.444;2023-09-18T03:37:20;25.60;;;15.15;;
17145;SDS011;8688;54.444;18.444;2023-09-18T03:39:47;24.42;;;14.23;;
17145;SDS011;8688;54.444;18.444;2023-09-18T03:42:16;20.08;;;13.80;;
17145;SDS011;8688;54.444;18.444;2023-09-18T03:44:44;21.33;;;13.02;;
17145;SDS011;8688;54.444;18.444;2023-09-18T03:47:11;22.33;;;13.85;;
17145;SDS011;8688;54.444;18.444;2023-09-18T03:49:39;19.20;;;13.15;;
17145;SDS011;8688;54.444;18.444;2023-09-18T03:52:06;17.75;;;12.77;;
17145;SDS011;8688;54.444;18.444;2023-09-18T03:54:34;18.98;;;12.65;;
17145;SDS011;8688;54.444;18.444;2023-09-18T03:57:01;19.73;;;12.73;;
17145;SDS011;8688;54.444;18.444;2023-09-18T03:59:30;21.63;;;13.07;;
17145;SDS011;8688;54.444;18.444;2023-09-18T04:01:58;21.55;;;13.07;;
17145;SDS011;8688;54.444;18.444;2023-09-18T04:04:26;19.50;;;13.23;;
17145;SDS011;8688;54.444;18.444;2023-09-18T04:06:54;21.63;;;13.48;;
17145;SDS011;8688;54.444;18.444;2023-09-18T04:09:22;20.20;;;13.60;;
17145;SDS011;8688;54.444;18.444;2023-09-18T04:11:49;18.98;;;12.80;;
17145;SDS011;8688;54.444;18.444;2023-09-18T04:14:17;20.33;;;13.77;;
17145;SDS011;8688;54.444;18.444;2023-09-18T04:16:46;23.92;;;14.57;;
17145;SDS011;8688;54.444;18.444;2023-09-18T04:19:14;24.20;;;15.13;;
17145;SDS011;8688;54.444;18.444;2023-09-18T04:21:41;26.42;;;16.35;;
17145;SDS011;8688;54.444;18.444;2023-09-18T04:24:09;24.10;;;15.48;;
17145;SDS011;8688;54.444;18.444;2023-09-18T04:26:36;26.67;;;16.13;;
17145;SDS011;8688;54.444;18.444;2023-09-18T04:29:04;23.92;;;15.20;;
17145;SDS011;8688;54.444;18.444;2023-09-18T04:31:32;23.33;;;15.48;;
17145;SDS011;8688;54.444;18.444;2023-09-18T04:34:01;22.75;;;14.48;;
17145;SDS011;8688;54.444;18.444;2023-09-18T04:36:29;23.30;;;14.60;;
17145;SDS011;8688;54.444;18.444;2023-09-18T04:38:57;21.13;;;14.43;;
17145;SDS011;8688;54.444;18.444;2023-09-18T04:41:24;21.00;;;14.85;;
17145;SDS011;8688;54.444;18.444;2023-09-18T04:43:52;22.38;;;14.32;;
17145;SDS011;8688;54.444;18.444;2023-09-18T04:46:19;20.88;;;14.02;;
17145;SDS011;8688;54.444;18.444;2023-09-18T04:48:47;23.25;;;14.40;;
17145;SDS011;8688;54.444;18.444;2023-09-18T04:51:16;22.73;;;13.70;;
17145;SDS011;8688;54.444;18.444;2023-09-18T04:53:43;23.13;;;13.85;;
17145;SDS011;8688;54.444;18.444;2023-09-18T04:56:11;22.67;;;14.15;;
17145;SDS011;8688;54.444;18.444;2023-09-18T04:58:38;24.23;;;14.10;;
17145;SDS011;8688;54.444;18.444;2023-09-18T05:01:06;21.83;;;14.35;;
17145;SDS011;8688;54.444;18.444;2023-09-18T05:03:36;20.48;;;13.52;;
17145;SDS011;8688;54.444;18.444;2023-09-18T05:06:04;24.30;;;13.27;;
17145;SDS011;8688;54.444;18.444;2023-09-18T05:08:33;22.45;;;13.43;;
17145;SDS011;8688;54.444;18.444;2023-09-18T05:11:00;19.15;;;12.77;;
17145;SDS011;8688;54.444;18.444;2023-09-18T05:13:28;19.50;;;13.60;;
17145;SDS011;8688;54.444;18.444;2023-09-18T05:15:55;19.70;;;13.05;;
17145;SDS011;8688;54.444;18.444;2023-09-18T05:18:24;16.17;;;11.93;;
17145;SDS011;8688;54.444;18.444;2023-09-18T05:20:51;17.38;;;12.35;;
17145;SDS011;8688;54.444;18.444;2023-09-18T05:23:19;17.63;;;11.93;;
17145;SDS011;8688;54.444;18.444;2023-09-18T05:25:48;20.80;;;11.80;;
17145;SDS011;8688;54.444;18.444;2023-09-18T05:28:16;17.08;;;11.27;;
17145;SDS011;8688;54.444;18.444;2023-09-18T05:30:43;19.17;;;11.57;;
17145;SDS011;8688;54.444;18.444;2023-09-18T05:33:11;15.80;;;11.07;;
17145;SDS011;8688;54.444;18.444;2023-09-18T05:35:39;16.45;;;11.35;;
17145;SDS011;8688;54.444;18.444;2023-09-18T05:38:08;17.67;;;11.90;;
17145;SDS011;8688;54.444;18.444;2023-09-18T05:40:36;18.52;;;12.45;;
17145;SDS011;8688;54.444;18.444;2023-09-18T05:43:05;18.42;;;12.75;;
17145;SDS011;8688;54.444;18.444;2023-09-18T05:45:32;15.60;;;11.00;;
17145;SDS011;8688;54.444;18.444;2023-09-18T05:48:00;16.05;;;11.38;;
17145;SDS011;8688;54.444;18.444;2023-09-18T05:50:29;17.27;;;11.65;;
17145;SDS011;8688;54.444;18.444;2023-09-18T05:52:57;19.50;;;12.23;;
17145;SDS011;8688;54.444;18.444;2023-09-18T05:55:26;18.23;;;12.32;;
17145;SDS011;8688;54.444;18.444;2023-09-18T05:57:53;17.05;;;11.75;;
17145;SDS011;8688;54.444;18.444;2023-09-18T06:00:24;17.38;;;12.13;;
17145;SDS011;8688;54.444;18.444;2023-09-18T06:02:52;16.23;;;11.93;;
17145;SDS011;8688;54.444;18.444;2023-09-18T06:05:19;17.77;;;12.30;;
17145;SDS011;8688;54.444;18.444;2023-09-18T06:07:47;16.27;;;12.02;;
17145;SDS011;8688;54.444;18.444;2023-09-18T06:10:15;17.40;;;12.30;;
17145;SDS011;8688;54.444;18.444;2023-09-18T06:12:43;17.80;;;11.98;;
17145;SDS011;8688;54.444;18.444;2023-09-18T06:15:12;19.70;;;11.57;;
17145;SDS011;8688;54.444;18.444;2023-09-18T06:17:43;20.48;;;12.75;;
17145;SDS011;8688;54.444;18.444;2023-09-18T06:20:11;19.67;;;11.85;;
17145;SDS011;8688;54.444;18.444;2023-09-18T06:22:41;17.35;;;11.65;;
17145;SDS011;8688;54.444;18.444;2023-09-18T06:25:09;15.90;;;11.18;;
17145;SDS011;8688;54.444;18.444;2023-09-18T06:27:36;16.35;;;11.98;;
17145;SDS011;8688;54.444;18.444;2023-09-18T06:30:05;15.63;;;11.68;;
17145;SDS011;8688;54.444;18.444;2023-09-18T06:32:34;14.70;;;11.00;;
17145;SDS011;8688;54.444;18.444;2023-09-18T06:35:04;17.15;;;10.85;;
17145;SDS011;8688;54.444;18.444;2023-09-18T06:37:32;16.40;;;11.10;;
17145;SDS011;8688;54.444;18.444;2023-09-18T06:40:00;14.73;;;10.77;;
17145;SDS011;8688;54.444;18.444;2023-09-18T06:42:30;15.77;;;11.20;;
17145;SDS011;8688;54.444;18.444;2023-09-18T06:44:58;15.30;;;11.00;;
17145;SDS011;8688;54.444;18.444;2023-09-18T06:47:26;15.98;;;11.02;;
17145;SDS011;8688;54.444;18.444;2023-09-18T06:49:54;17.73;;;11.23;;
17145;SDS011;8688;54.444;18.444;2023-09-18T06:52:23;14.00;;;10.43;;
17145;SDS011;8688;54.444;18.444;2023-09-18T06:54:52;15.10;;;10.77;;
17145;SDS011;8688;54.444;18.444;2023-09-18T06:57:19;17.50;;;11.45;;
17145;SDS011;8688;54.444;18.444;2023-09-18T06:59:47;18.40;;;11.57;;
17145;SDS011;8688;54.444;18.444;2023-09-18T07:02:15;15.20;;;10.50;;
17145;SDS011;8688;54.444;18.444;2023-09-18T07:04:42;15.93;;;10.45;;
17145;SDS011;8688;54.444;18.444;2023-09-18T07:07:11;16.65;;;10.82;;
17145;SDS011;8688;54.444;18.444;2023-09-18T07:09:40;13.70;;;10.35;;
17145;SDS011;8688;54.444;18.444;2023-09-18T07:12:09;15.20;;;10.15;;
17145;SDS011;8688;54.444;18.444;2023-09-18T07:14:36;16.55;;;11.10;;
17145;SDS011;8688;54.444;18.444;2023-09-18T07:17:04;16.48;;;10.32;;
17145;SDS011;8688;54.444;18.444;2023-09-18T07:19:32;15.60;;;10.30;;
17145;SDS011;8688;54.444;18.444;2023-09-18T07:21:59;15.23;;;9.68;;
17145;SDS011;8688;54.444;18.444;2023-09-18T07:24:27;17.73;;;9.80;;
17145;SDS011;8688;54.444;18.444;2023-09-18T07:26:56;16.00;;;10.00;;
17145;SDS011;8688;54.444;18.444;2023-09-18T07:29:24;14.52;;;9.57;;
17145;SDS011;8688;54.444;18.444;2023-09-18T07:31:52;13.48;;;9.40;;
17145;SDS011;8688;54.444;18.444;2023-09-18T07:34:20;14.20;;;9.68;;
17145;SDS011;8688;54.444;18.444;2023-09-18T07:36:47;13.18;;;10.02;;
17145;SDS011;8688;54.444;18.444;2023-09-18T07:39:19;13.18;;;9.32;;
17145;SDS011;8688;54.444;18.444;2023-09-18T07:41:46;10.88;;;8.93;;
17145;SDS011;8688;54.444;18.444;2023-09-18T07:44:20;12.88;;;9.32;;
17145;SDS011;8688;54.444;18.444;2023-09-18T07:46:48;11.32;;;8.93;;
17145;SDS011;8688;54.444;18.444;2023-09-18T07:49:15;11.90;;;9.02;;
17145;SDS011;8688;54.444;18.444;2023-09-18T07:51:43;9.40;;;7.95;;
17145;SDS011;8688;54.444;18.444;2023-09-18T07:54:13;11.40;;;8.63;;
17145;SDS011;8688;54.444;18.444;2023-09-18T07:56:42;10.63;;;8.00;;
17145;SDS011;8688;54.444;18.444;2023-09-18T07:59:10;13.48;;;8.70;;
17145;SDS011;8688;54.444;18.444;2023-09-18T08:01:41;11.15;;;8.15;;
17145;SDS011;8688;54.444;18.444;2023-09-18T08:04:09;10.90;;;8.40;;
17145;SDS011;8688;54.444;18.444;2023-09-18T08:06:36;11.80;;;8.77;;
17145;SDS011;8688;54.444;18.444;2023-09-18T08:09:06;12.35;;;8.90;;
17145;SDS011;8688;54.444;18.444;2023-09-18T08:11:34;11.23;;;8.13;;
17145;SDS011;8688;54.444;18.444;2023-09-18T08:14:07;12.60;;;8.13;;
17145;SDS011;8688;54.444;18.444;2023-09-18T08:16:34;10.30;;;7.65;;
17145;SDS011;8688;54.444;18.444;2023-09-18T08:19:03;12.63;;;7.95;;
17145;SDS011;8688;54.444;18.444;2023-09-18T08:21:32;12.27;;;7.57;;
17145;SDS011;8688;54.444;18.444;2023-09-18T08:23:59;11.75;;;7.15;;
17145;SDS011;8688;54.444;18.444;2023-09-18T08:26:27;10.63;;;7.03;;
17145;SDS011;8688;54.444;18.444;2023-09-18T08:28:55;10.38;;;6.93;;
17145;SDS011;8688;54.444;18.444;2023-09-18T08:31:22;10.52;;;6.63;;
17145;SDS011;8688;54.444;18.444;2023-09-18T08:33:50;9.68;;;6.95;;
17145;SDS011;8688;54.444;18.444;2023-09-18T08:36:19;9.63;;;6.88;;
17145;SDS011;8688;54.444;18.444;2023-09-18T08:38:47;10.00;;;6.72;;
17145;SDS011;8688;54.444;18.444;2023-09-18T08:41:14;9.45;;;6.15;;
17145;SDS011;8688;54.444;18.444;2023-09-18T08:43:46;9.88;;;6.45;;
17145;SDS011;8688;54.444;18.444;2023-09-18T08:46:16;7.22;;;6.00;;
17145;SDS011;8688;54.444;18.444;2023-09-18T08:48:43;8.20;;;6.28;;
17145;SDS011;8688;54.444;18.444;2023-09-18T08:51:12;6.50;;;5.78;;
17145;SDS011;8688;54.444;18.444;2023-09-18T08:53:41;6.88;;;5.90;;
17145;SDS011;8688;54.444;18.444;2023-09-18T08:56:09;7.97;;;6.40;;
17145;SDS011;8688;54.444;18.444;2023-09-18T08:58:39;10.25;;;6.45;;
17145;SDS011;8688;54.444;18.444;2023-09-18T09:01:08;7.40;;;6.10;;
17145;SDS011;8688;54.444;18.444;2023-09-18T09:03:36;8.48;;;5.90;;
17145;SDS011;8688;54.444;18.444;2023-09-18T09:06:04;8.18;;;6.57;;
17145;SDS011;8688;54.444;18.444;2023-09-18T09:08:33;7.80;;;6.63;;
17145;SDS011;8688;54.444;18.444;2023-09-18T09:11:02;14.23;;;6.82;;
17145;SDS011;8688;54.444;18.444;2023-09-18T09:13:30;7.18;;;6.25;;
17145;SDS011;8688;54.444;18.444;2023-09-18T09:15:58;8.80;;;6.22;;
17145;SDS011;8688;54.444;18.444;2023-09-18T09:18:26;9.48;;;5.88;;
17145;SDS011;8688;54.444;18.444;2023-09-18T09:20:57;9.73;;;6.57;;
17145;SDS011;8688;54.444;18.444;2023-09-18T09:23:26;10.20;;;7.25;;
17145;SDS011;8688;54.444;18.444;2023-09-18T09:25:56;8.23;;;6.28;;
17145;SDS011;8688;54.444;18.444;2023-09-18T09:28:40;10.10;;;6.28;;
17145;SDS011;8688;54.444;18.444;2023-09-18T09:31:09;7.88;;;6.22;;
17145;SDS011;8688;54.444;18.444;2023-09-18T09:33:37;9.45;;;6.60;;
17145;SDS011;8688;54.444;18.444;2023-09-18T09:36:06;7.63;;;6.30;;
17145;SDS011;8688;54.444;18.444;2023-09-18T09:38:34;12.48;;;5.93;;
17145;SDS011;8688;54.444;18.444;2023-09-18T09:41:02;11.35;;;6.22;;
17145;SDS011;8688;54.444;18.444;2023-09-18T09:43:33;6.78;;;5.65;;
17145;SDS011;8688;54.444;18.444;2023-09-18T09:46:01;8.90;;;6.57;;
17145;SDS011;8688;54.444;18.444;2023-09-18T09:48:30;9.98;;;6.22;;
17145;SDS011;8688;54.444;18.444;2023-09-18T09:50:58;8.50;;;6.45;;
17145;SDS011;8688;54.444;18.444;2023-09-18T09:53:43;9.57;;;6.03;;
17145;SDS011;8688;54.444;18.444;2023-09-18T09:56:12;8.90;;;5.75;;
17145;SDS011;8688;54.444;18.444;2023-09-18T09:58:41;9.63;;;6.63;;
17145;SDS011;8688;54.444;18.444;2023-09-18T10:01:11;8.18;;;6.38;;
17145;SDS011;8688;54.444;18.444;2023-09-18T10:03:43;11.90;;;6.45;;
17145;SDS011;8688;54.444;18.444;2023-09-18T10:06:12;9.75;;;6.50;;
17145;SDS011;8688;54.444;18.444;2023-09-18T10:08:40;10.30;;;6.13;;
17145;SDS011;8688;54.444;18.444;2023-09-18T10:11:08;7.10;;;5.90;;
17145;SDS011;8688;54.444;18.444;2023-09-18T10:13:46;8.82;;;6.13;;
17145;SDS011;8688;54.444;18.444;2023-09-18T10:16:15;11.57;;;5.90;;
17145;SDS011;8688;54.444;18.444;2023-09-18T10:18:49;10.77;;;6.60;;
17145;SDS011;8688;54.444;18.444;2023-09-18T10:21:26;7.28;;;6.22;;
17145;SDS011;8688;54.444;18.444;2023-09-18T10:23:59;9.13;;;6.32;;
17145;SDS011;8688;54.444;18.444;2023-09-18T10:26:35;7.05;;;6.05;;
17145;SDS011;8688;54.444;18.444;2023-09-18T10:29:10;11.68;;;6.60;;
17145;SDS011;8688;54.444;18.444;2023-09-18T10:31:39;9.52;;;6.18;;
17145;SDS011;8688;54.444;18.444;2023-09-18T10:34:07;9.88;;;6.38;;
17145;SDS011;8688;54.444;18.444;2023-09-18T10:36:35;10.13;;;6.60;;
17145;SDS011;8688;54.444;18.444;2023-09-18T10:39:04;9.15;;;6.90;;
17145;SDS011;8688;54.444;18.444;2023-09-18T10:41:33;11.13;;;7.00;;
17145;SDS011;8688;54.444;18.444;2023-09-18T10:44:02;11.93;;;6.78;;
17145;SDS011;8688;54.444;18.444;2023-09-18T10:46:32;11.15;;;6.95;;
17145;SDS011;8688;54.444;18.444;2023-09-18T10:49:00;9.25;;;5.85;;
17145;SDS011;8688;54.444;18.444;2023-09-18T10:51:29;11.52;;;6.30;;
17145;SDS011;8688;54.444;18.444;2023-09-18T10:54:00;10.00;;;6.60;;
17145;SDS011;8688;54.444;18.444;2023-09-18T10:56:28;8.38;;;6.25;;
17145;SDS011;8688;54.444;18.444;2023-09-18T10:58:57;9.07;;;6.45;;
17145;SDS011;8688;54.444;18.444;2023-09-18T11:01:27;9.82;;;6.22;;
17145;SDS011;8688;54.444;18.444;2023-09-18T11:03:59;9.75;;;6.00;;
17145;SDS011;8688;54.444;18.444;2023-09-18T11:06:28;6.97;;;6.28;;
17145;SDS011;8688;54.444;18.444;2023-09-18T11:09:07;8.20;;;5.82;;
17145;SDS011;8688;54.444;18.444;2023-09-18T11:11:35;8.32;;;6.47;;
17145;SDS011;8688;54.444;18.444;2023-09-18T11:14:03;9.38;;;6.18;;
17145;SDS011;8688;54.444;18.444;2023-09-18T11:16:40;10.52;;;6.32;;
17145;SDS011;8688;54.444;18.444;2023-09-18T11:19:11;6.65;;;5.75;;
17145;SDS011;8688;54.444;18.444;2023-09-18T11:21:40;6.28;;;5.68;;
17145;SDS011;8688;54.444;18.444;2023-09-18T11:24:14;6.32;;;5.70;;
17145;SDS011;8688;54.444;18.444;2023-09-18T11:26:44;7.35;;;5.20;;
17145;SDS011;8688;54.444;18.444;2023-09-18T11:29:14;6.85;;;6.03;;
17145;SDS011;8688;54.444;18.444;2023-09-18T11:31:46;7.50;;;5.60;;
17145;SDS011;8688;54.444;18.444;2023-09-18T11:34:19;6.55;;;5.60;;
17145;SDS011;8688;54.444;18.444;2023-09-18T11:36:47;5.88;;;4.93;;
17145;SDS011;8688;54.444;18.444;2023-09-18T11:42:08;8.93;;;5.55;;
17145;SDS011;8688;54.444;18.444;2023-09-18T11:44:37;5.20;;;4.70;;
17145;SDS011;8688;54.444;18.444;2023-09-18T11:47:11;6.95;;;5.82;;
17145;SDS011;8688;54.444;18.444;2023-09-18T11:49:49;8.70;;;4.93;;
17145;SDS011;8688;54.444;18.444;2023-09-18T11:52:20;9.23;;;5.07;;
17145;SDS011;8688;54.444;18.444;2023-09-18T11:54:47;8.90;;;5.50;;
17145;SDS011;8688;54.444;18.444;2023-09-18T11:57:16;7.03;;;5.00;;
17145;SDS011;8688;54.444;18.444;2023-09-18T11:59:45;7.07;;;5.03;;
17145;SDS011;8688;54.444;18.444;2023-09-18T12:02:13;7.18;;;4.85;;
17145;SDS011;8688;54.444;18.444;2023-09-18T12:04:46;6.28;;;4.90;;
17145;SDS011;8688;54.444;18.444;2023-09-18T12:07:15;5.07;;;4.55;;
17145;SDS011;8688;54.444;18.444;2023-09-18T12:09:44;6.05;;;5.05;;
17145;SDS011;8688;54.444;18.444;2023-09-18T12:12:11;7.20;;;4.68;;
17145;SDS011;8688;54.444;18.444;2023-09-18T12:14:40;7.10;;;4.43;;
17145;SDS011;8688;54.444;18.444;2023-09-18T12:17:13;6.00;;;4.50;;
17145;SDS011;8688;54.444;18.444;2023-09-18T12:19:49;6.57;;;4.72;;
17145;SDS011;8688;54.444;18.444;2023-09-18T12:22:24;8.55;;;4.70;;
17145;SDS011;8688;54.444;18.444;2023-09-18T12:24:52;7.07;;;4.38;;
17145;SDS011;8688;54.444;18.444;2023-09-18T12:27:20;5.25;;;4.50;;
17145;SDS011;8688;54.444;18.444;2023-09-18T12:29:52;6.10;;;4.25;;
17145;SDS011;8688;54.444;18.444;2023-09-18T12:32:19;5.20;;;4.63;;
17145;SDS011;8688;54.444;18.444;2023-09-18T12:34:47;5.65;;;4.53;;
17145;SDS011;8688;54.444;18.444;2023-09-18T12:37:15;6.57;;;4.47;;
17145;SDS011;8688;54.444;18.444;2023-09-18T12:39:45;4.95;;;4.30;;
17145;SDS011;8688;54.444;18.444;2023-09-18T12:45:06;5.55;;;4.63;;
17145;SDS011;8688;54.444;18.444;2023-09-18T12:47:34;7.40;;;4.22;;
17145;SDS011;8688;54.444;18.444;2023-09-18T12:50:04;5.43;;;4.38;;
17145;SDS011;8688;54.444;18.444;2023-09-18T12:52:33;7.63;;;4.70;;
17145;SDS011;8688;54.444;18.444;2023-09-18T12:55:02;8.23;;;4.43;;
17145;SDS011;8688;54.444;18.444;2023-09-18T12:57:32;5.47;;;4.30;;
17145;SDS011;8688;54.444;18.444;2023-09-18T13:00:07;5.20;;;4.70;;
17145;SDS011;8688;54.444;18.444;2023-09-18T13:02:38;5.82;;;4.60;;
17145;SDS011;8688;54.444;18.444;2023-09-18T13:05:06;6.63;;;5.00;;
17145;SDS011;8688;54.444;18.444;2023-09-18T13:07:43;8.25;;;4.40;;
17145;SDS011;8688;54.444;18.444;2023-09-18T13:10:14;6.50;;;4.63;;
17145;SDS011;8688;54.444;18.444;2023-09-18T13:12:42;8.35;;;5.10;;
17145;SDS011;8688;54.444;18.444;2023-09-18T13:15:12;5.15;;;4.50;;
17145;SDS011;8688;54.444;18.444;2023-09-18T13:17:41;5.18;;;4.68;;
17145;SDS011;8688;54.444;18.444;2023-09-18T13:20:20;6.05;;;4.50;;
17145;SDS011;8688;54.444;18.444;2023-09-18T13:22:54;5.05;;;4.55;;
17145;SDS011;8688;54.444;18.444;2023-09-18T13:25:26;7.00;;;4.53;;
17145;SDS011;8688;54.444;18.444;2023-09-18T13:56:12;5.97;;;4.85;;
17145;SDS011;8688;54.444;18.444;2023-09-18T13:58:39;7.88;;;4.65;;
17145;SDS011;8688;54.444;18.444;2023-09-18T14:01:07;10.18;;;4.40;;
17145;SDS011;8688;54.444;18.444;2023-09-18T14:03:35;7.00;;;4.85;;
17145;SDS011;8688;54.444;18.444;2023-09-18T14:06:03;6.68;;;4.40;;
17145;SDS011;8688;54.444;18.444;2023-09-18T14:08:32;5.05;;;4.43;;
17145;SDS011;8688;54.444;18.444;2023-09-18T14:11:00;7.30;;;4.78;;
17145;SDS011;8688;54.444;18.444;2023-09-18T14:13:31;5.18;;;4.68;;
17145;SDS011;8688;54.444;18.444;2023-09-18T14:15:59;5.35;;;4.50;;
17145;SDS011;8688;54.444;18.444;2023-09-18T14:18:28;5.80;;;4.28;;
17145;SDS011;8688;54.444;18.444;2023-09-18T14:20:56;7.88;;;4.80;;
17145;SDS011;8688;54.444;18.444;2023-09-18T14:23:24;5.20;;;4.20;;
17145;SDS011;8688;54.444;18.444;2023-09-18T14:25:53;5.80;;;4.40;;
17145;SDS011;8688;54.444;18.444;2023-09-18T14:28:20;7.45;;;4.53;;
17145;SDS011;8688;54.444;18.444;2023-09-18T14:30:50;6.53;;;4.55;;
17145;SDS011;8688;54.444;18.444;2023-09-18T14:33:18;6.40;;;4.80;;
17145;SDS011;8688;54.444;18.444;2023-09-18T14:35:46;5.93;;;4.55;;
17145;SDS011;8688;54.444;18.444;2023-09-18T14:38:14;16.80;;;5.00;;
17145;SDS011;8688;54.444;18.444;2023-09-18T14:40:42;5.45;;;4.90;;
17145;SDS011;8688;54.444;18.444;2023-09-18T14:43:10;6.07;;;5.03;;
17145;SDS011;8688;54.444;18.444;2023-09-18T14:45:38;6.63;;;4.93;;
17145;SDS011;8688;54.444;18.444;2023-09-18T14:48:08;6.55;;;5.13;;
17145;SDS011;8688;54.444;18.444;2023-09-18T14:50:37;8.25;;;4.68;;
17145;SDS011;8688;54.444;18.444;2023-09-18T14:53:05;6.55;;;5.10;;
17145;SDS011;8688;54.444;18.444;2023-09-18T14:55:34;7.95;;;4.80;;
17145;SDS011;8688;54.444;18.444;2023-09-18T14:58:04;12.60;;;5.20;;
17145;SDS011;8688;54.444;18.444;2023-09-18T15:00:35;7.20;;;4.75;;
17145;SDS011;8688;54.444;18.444;2023-09-18T15:03:03;6.93;;;5.18;;
17145;SDS011;8688;54.444;18.444;2023-09-18T15:19:06;8.80;;;5.65;;
17145;SDS011;8688;54.444;18.444;2023-09-18T15:21:37;8.40;;;6.45;;
17145;SDS011;8688;54.444;18.444;2023-09-18T15:24:07;10.25;;;6.53;;
17145;SDS011;8688;54.444;18.444;2023-09-18T15:26:38;10.75;;;5.85;;
17145;SDS011;8688;54.444;18.444;2023-09-18T15:29:12;10.35;;;6.30;;
17145;SDS011;8688;54.444;18.444;2023-09-18T15:31:42;8.27;;;6.18;;